Terminal Aerodrome Forecast
Issued by NWS Cleveland, OH

Home | Current Version | Previous Version | Graphics & Text | Print | Product List | Glossary On
Versions: 1 2 3 4 5 6 7 8 9 10 11 12 13 14 15 16 17 18 19 20 21 22 23
000
FTUS41 KCLE 150539
TAFMFD
TAF
KMFD 150539Z 1506/1606 22011KT 3/4SM -DZ BR OVC003
     FM151100 23012KT 3SM BR OVC007
     FM151700 22012KT P6SM OVC010
     FM152000 22012KT 2SM -RA BR OVC007
     FM160000 23010KT 1SM -RA OVC003=

USA.gov is the U.S. government's official web portal to all federal, state and local government web resources and services.